sensor_id;sensor_type;location;lat;lon;timestamp;P1;durP1;ratioP1;P2;durP2;ratioP2
36651;SDS011;53334;51.976;20.144;2023-05-17T00:01:27;9.35;;;6.22;;
36651;SDS011;53334;51.976;20.144;2023-05-17T00:04:00;6.65;;;5.68;;
36651;SDS011;53334;51.976;20.144;2023-05-17T00:06:35;7.72;;;5.45;;
36651;SDS011;53334;51.976;20.144;2023-05-17T00:09:08;9.63;;;5.43;;
36651;SDS011;53334;51.976;20.144;2023-05-17T00:11:42;7.40;;;5.78;;
36651;SDS011;53334;51.976;20.144;2023-05-17T00:14:15;8.13;;;6.60;;
36651;SDS011;53334;51.976;20.144;2023-05-17T00:16:48;6.13;;;5.28;;
36651;SDS011;53334;51.976;20.144;2023-05-17T00:19:23;7.55;;;5.45;;
36651;SDS011;53334;51.976;20.144;2023-05-17T00:24:31;7.90;;;5.60;;
36651;SDS011;53334;51.976;20.144;2023-05-17T00:27:04;10.52;;;7.20;;
36651;SDS011;53334;51.976;20.144;2023-05-17T00:29:37;7.70;;;5.80;;
36651;SDS011;53334;51.976;20.144;2023-05-17T00:32:11;8.13;;;5.93;;
36651;SDS011;53334;51.976;20.144;2023-05-17T00:34:44;11.48;;;5.47;;
36651;SDS011;53334;51.976;20.144;2023-05-17T00:37:19;7.78;;;5.60;;
36651;SDS011;53334;51.976;20.144;2023-05-17T00:39:53;7.80;;;5.25;;
36651;SDS011;53334;51.976;20.144;2023-05-17T00:42:27;9.00;;;5.18;;
36651;SDS011;53334;51.976;20.144;2023-05-17T00:45:00;6.47;;;5.78;;
36651;SDS011;53334;51.976;20.144;2023-05-17T00:47:34;7.10;;;5.88;;
36651;SDS011;53334;51.976;20.144;2023-05-17T00:50:08;10.13;;;5.55;;
36651;SDS011;53334;51.976;20.144;2023-05-17T00:52:43;6.15;;;5.50;;
36651;SDS011;53334;51.976;20.144;2023-05-17T00:55:17;6.32;;;5.68;;
36651;SDS011;53334;51.976;20.144;2023-05-17T00:57:51;8.02;;;5.90;;
36651;SDS011;53334;51.976;20.144;2023-05-17T01:00:26;7.50;;;5.22;;
36651;SDS011;53334;51.976;20.144;2023-05-17T01:02:59;10.52;;;5.40;;
36651;SDS011;53334;51.976;20.144;2023-05-17T01:08:08;6.17;;;5.37;;
36651;SDS011;53334;51.976;20.144;2023-05-17T01:10:43;10.10;;;5.80;;
36651;SDS011;53334;51.976;20.144;2023-05-17T01:13:23;7.90;;;4.70;;
36651;SDS011;53334;51.976;20.144;2023-05-17T01:16:04;5.65;;;5.05;;
36651;SDS011;53334;51.976;20.144;2023-05-17T01:18:45;6.93;;;5.32;;
36651;SDS011;53334;51.976;20.144;2023-05-17T01:21:29;6.72;;;5.60;;
36651;SDS011;53334;51.976;20.144;2023-05-17T01:24:21;5.32;;;4.82;;
36651;SDS011;53334;51.976;20.144;2023-05-17T01:27:00;5.75;;;4.78;;
36651;SDS011;53334;51.976;20.144;2023-05-17T01:29:36;5.32;;;4.75;;
36651;SDS011;53334;51.976;20.144;2023-05-17T01:32:11;5.85;;;4.80;;
36651;SDS011;53334;51.976;20.144;2023-05-17T01:34:47;5.22;;;4.70;;
36651;SDS011;53334;51.976;20.144;2023-05-17T01:37:20;5.85;;;4.57;;
36651;SDS011;53334;51.976;20.144;2023-05-17T01:39:53;5.63;;;5.13;;
36651;SDS011;53334;51.976;20.144;2023-05-17T01:42:30;8.80;;;5.00;;
36651;SDS011;53334;51.976;20.144;2023-05-17T01:45:05;5.95;;;4.97;;
36651;SDS011;53334;51.976;20.144;2023-05-17T01:47:46;6.20;;;5.13;;
36651;SDS011;53334;51.976;20.144;2023-05-17T01:50:28;7.68;;;5.80;;
36651;SDS011;53334;51.976;20.144;2023-05-17T01:53:04;5.90;;;5.30;;
36651;SDS011;53334;51.976;20.144;2023-05-17T01:55:45;5.90;;;4.88;;
36651;SDS011;53334;51.976;20.144;2023-05-17T01:58:25;6.50;;;4.45;;
36651;SDS011;53334;51.976;20.144;2023-05-17T02:01:01;5.88;;;5.07;;
36651;SDS011;53334;51.976;20.144;2023-05-17T02:03:35;5.57;;;4.80;;
36651;SDS011;53334;51.976;20.144;2023-05-17T02:06:09;4.72;;;4.28;;
36651;SDS011;53334;51.976;20.144;2023-05-17T02:08:44;5.50;;;4.90;;
36651;SDS011;53334;51.976;20.144;2023-05-17T02:11:17;6.10;;;4.57;;
36651;SDS011;53334;51.976;20.144;2023-05-17T02:13:52;5.53;;;4.53;;
36651;SDS011;53334;51.976;20.144;2023-05-17T02:16:25;4.78;;;4.28;;
36651;SDS011;53334;51.976;20.144;2023-05-17T02:18:59;5.63;;;4.93;;
36651;SDS011;53334;51.976;20.144;2023-05-17T02:21:32;5.10;;;4.57;;
36651;SDS011;53334;51.976;20.144;2023-05-17T02:24:06;4.63;;;4.22;;
36651;SDS011;53334;51.976;20.144;2023-05-17T02:26:39;4.82;;;4.32;;
36651;SDS011;53334;51.976;20.144;2023-05-17T02:29:15;5.18;;;4.40;;
36651;SDS011;53334;51.976;20.144;2023-05-17T02:31:48;5.15;;;4.55;;
36651;SDS011;53334;51.976;20.144;2023-05-17T02:34:21;5.20;;;4.65;;
36651;SDS011;53334;51.976;20.144;2023-05-17T02:36:55;5.22;;;4.65;;
36651;SDS011;53334;51.976;20.144;2023-05-17T02:39:28;5.78;;;5.15;;
36651;SDS011;53334;51.976;20.144;2023-05-17T02:42:02;6.70;;;4.22;;
36651;SDS011;53334;51.976;20.144;2023-05-17T02:44:37;4.78;;;4.15;;
36651;SDS011;53334;51.976;20.144;2023-05-17T02:47:11;5.18;;;4.68;;
36651;SDS011;53334;51.976;20.144;2023-05-17T02:49:44;4.28;;;3.97;;
36651;SDS011;53334;51.976;20.144;2023-05-17T02:52:18;5.00;;;4.50;;
36651;SDS011;53334;51.976;20.144;2023-05-17T02:54:51;7.32;;;4.32;;
36651;SDS011;53334;51.976;20.144;2023-05-17T02:57:24;4.97;;;4.40;;
36651;SDS011;53334;51.976;20.144;2023-05-17T02:59:59;5.47;;;4.28;;
36651;SDS011;53334;51.976;20.144;2023-05-17T03:02:33;4.82;;;4.03;;
36651;SDS011;53334;51.976;20.144;2023-05-17T03:05:08;5.22;;;4.72;;
36651;SDS011;53334;51.976;20.144;2023-05-17T03:07:46;5.10;;;4.57;;
36651;SDS011;53334;51.976;20.144;2023-05-17T03:10:19;5.55;;;4.50;;
36651;SDS011;53334;51.976;20.144;2023-05-17T03:12:52;9.13;;;4.55;;
36651;SDS011;53334;51.976;20.144;2023-05-17T03:15:29;5.00;;;4.47;;
36651;SDS011;53334;51.976;20.144;2023-05-17T03:18:03;7.07;;;3.92;;
36651;SDS011;53334;51.976;20.144;2023-05-17T03:20:37;5.25;;;4.38;;
36651;SDS011;53334;51.976;20.144;2023-05-17T03:23:11;4.63;;;4.22;;
36651;SDS011;53334;51.976;20.144;2023-05-17T03:25:57;5.05;;;4.15;;
36651;SDS011;53334;51.976;20.144;2023-05-17T03:28:32;6.55;;;4.15;;
36651;SDS011;53334;51.976;20.144;2023-05-17T03:31:07;5.43;;;4.35;;
36651;SDS011;53334;51.976;20.144;2023-05-17T03:33:41;6.28;;;4.53;;
36651;SDS011;53334;51.976;20.144;2023-05-17T03:36:15;6.60;;;4.47;;
36651;SDS011;53334;51.976;20.144;2023-05-17T03:38:48;6.13;;;4.90;;
36651;SDS011;53334;51.976;20.144;2023-05-17T03:41:21;4.72;;;4.30;;
36651;SDS011;53334;51.976;20.144;2023-05-17T03:43:55;4.97;;;4.47;;
36651;SDS011;53334;51.976;20.144;2023-05-17T03:54:11;4.53;;;4.03;;
36651;SDS011;53334;51.976;20.144;2023-05-17T03:56:44;4.20;;;3.80;;
36651;SDS011;53334;51.976;20.144;2023-05-17T03:59:20;4.57;;;3.80;;
36651;SDS011;53334;51.976;20.144;2023-05-17T04:04:28;3.80;;;3.45;;
36651;SDS011;53334;51.976;20.144;2023-05-17T04:07:02;3.80;;;3.50;;
36651;SDS011;53334;51.976;20.144;2023-05-17T04:09:35;4.53;;;4.05;;
36651;SDS011;53334;51.976;20.144;2023-05-17T04:12:09;4.32;;;3.92;;
36651;SDS011;53334;51.976;20.144;2023-05-17T04:14:43;4.38;;;3.97;;
36651;SDS011;53334;51.976;20.144;2023-05-17T04:17:17;5.00;;;4.55;;
36651;SDS011;53334;51.976;20.144;2023-05-17T04:19:52;6.00;;;3.83;;
36651;SDS011;53334;51.976;20.144;2023-05-17T04:22:25;5.43;;;3.92;;
36651;SDS011;53334;51.976;20.144;2023-05-17T04:24:58;4.22;;;3.83;;
36651;SDS011;53334;51.976;20.144;2023-05-17T04:27:32;4.00;;;3.45;;
36651;SDS011;53334;51.976;20.144;2023-05-17T04:30:08;5.07;;;3.83;;
36651;SDS011;53334;51.976;20.144;2023-05-17T04:32:44;5.70;;;4.15;;
36651;SDS011;53334;51.976;20.144;2023-05-17T04:35:18;4.25;;;3.85;;
36651;SDS011;53334;51.976;20.144;2023-05-17T04:37:54;4.00;;;3.60;;
36651;SDS011;53334;51.976;20.144;2023-05-17T04:40:28;4.30;;;3.90;;
36651;SDS011;53334;51.976;20.144;2023-05-17T04:43:03;3.90;;;3.50;;
36651;SDS011;53334;51.976;20.144;2023-05-17T04:48:12;4.18;;;3.58;;
36651;SDS011;53334;51.976;20.144;2023-05-17T04:50:47;4.63;;;3.72;;
36651;SDS011;53334;51.976;20.144;2023-05-17T04:53:20;4.25;;;3.38;;
36651;SDS011;53334;51.976;20.144;2023-05-17T04:55:54;3.67;;;3.38;;
36651;SDS011;53334;51.976;20.144;2023-05-17T04:58:28;4.25;;;3.85;;
36651;SDS011;53334;51.976;20.144;2023-05-17T05:01:04;3.58;;;3.28;;
36651;SDS011;53334;51.976;20.144;2023-05-17T05:03:39;3.80;;;3.38;;
36651;SDS011;53334;51.976;20.144;2023-05-17T05:06:14;3.13;;;2.90;;
36651;SDS011;53334;51.976;20.144;2023-05-17T05:08:48;3.90;;;3.47;;
36651;SDS011;53334;51.976;20.144;2023-05-17T05:11:21;5.13;;;4.57;;
36651;SDS011;53334;51.976;20.144;2023-05-17T05:13:55;3.90;;;3.53;;
36651;SDS011;53334;51.976;20.144;2023-05-17T05:16:28;4.00;;;3.70;;
36651;SDS011;53334;51.976;20.144;2023-05-17T05:19:03;3.28;;;2.97;;
36651;SDS011;53334;51.976;20.144;2023-05-17T05:21:37;3.80;;;3.50;;
36651;SDS011;53334;51.976;20.144;2023-05-17T05:26:44;3.72;;;3.42;;
36651;SDS011;53334;51.976;20.144;2023-05-17T05:29:21;3.97;;;3.58;;
36651;SDS011;53334;51.976;20.144;2023-05-17T05:31:54;4.20;;;3.80;;
36651;SDS011;53334;51.976;20.144;2023-05-17T05:34:29;3.63;;;3.33;;
36651;SDS011;53334;51.976;20.144;2023-05-17T05:37:03;3.58;;;3.28;;
36651;SDS011;53334;51.976;20.144;2023-05-17T05:39:37;3.53;;;3.13;;
36651;SDS011;53334;51.976;20.144;2023-05-17T05:42:11;4.88;;;2.83;;
36651;SDS011;53334;51.976;20.144;2023-05-17T05:44:44;3.70;;;3.33;;
36651;SDS011;53334;51.976;20.144;2023-05-17T05:47:18;5.90;;;3.65;;
36651;SDS011;53334;51.976;20.144;2023-05-17T05:49:53;4.22;;;3.83;;
36651;SDS011;53334;51.976;20.144;2023-05-17T05:52:26;4.38;;;3.55;;
36651;SDS011;53334;51.976;20.144;2023-05-17T05:55:00;3.72;;;3.33;;
36651;SDS011;53334;51.976;20.144;2023-05-17T05:57:33;6.57;;;3.20;;
36651;SDS011;53334;51.976;20.144;2023-05-17T06:00:07;5.72;;;3.85;;
36651;SDS011;53334;51.976;20.144;2023-05-17T06:02:45;3.92;;;3.35;;
36651;SDS011;53334;51.976;20.144;2023-05-17T06:05:20;4.25;;;3.20;;
36651;SDS011;53334;51.976;20.144;2023-05-17T06:07:53;4.95;;;3.08;;
36651;SDS011;53334;51.976;20.144;2023-05-17T06:10:27;5.97;;;2.70;;
36651;SDS011;53334;51.976;20.144;2023-05-17T06:13:01;3.45;;;3.15;;
36651;SDS011;53334;51.976;20.144;2023-05-17T06:15:34;4.97;;;3.45;;
36651;SDS011;53334;51.976;20.144;2023-05-17T06:18:07;4.35;;;3.40;;
36651;SDS011;53334;51.976;20.144;2023-05-17T06:20:42;3.30;;;3.00;;
36651;SDS011;53334;51.976;20.144;2023-05-17T06:23:15;3.65;;;3.30;;
36651;SDS011;53334;51.976;20.144;2023-05-17T06:25:49;3.92;;;3.53;;
36651;SDS011;53334;51.976;20.144;2023-05-17T06:28:22;5.18;;;3.65;;
36651;SDS011;53334;51.976;20.144;2023-05-17T06:33:29;3.45;;;3.15;;
36651;SDS011;53334;51.976;20.144;2023-05-17T06:36:04;3.67;;;3.03;;
36651;SDS011;53334;51.976;20.144;2023-05-17T06:38:38;4.45;;;2.88;;
36651;SDS011;53334;51.976;20.144;2023-05-17T06:41:11;8.13;;;3.50;;
36651;SDS011;53334;51.976;20.144;2023-05-17T06:43:45;8.77;;;3.38;;
36651;SDS011;53334;51.976;20.144;2023-05-17T06:46:18;3.55;;;3.10;;
36651;SDS011;53334;51.976;20.144;2023-05-17T06:48:51;7.05;;;3.42;;
36651;SDS011;53334;51.976;20.144;2023-05-17T06:51:26;4.50;;;3.30;;
36651;SDS011;53334;51.976;20.144;2023-05-17T06:54:00;3.92;;;2.95;;
36651;SDS011;53334;51.976;20.144;2023-05-17T06:56:33;4.68;;;3.22;;
36651;SDS011;53334;51.976;20.144;2023-05-17T06:59:06;3.47;;;3.08;;
36651;SDS011;53334;51.976;20.144;2023-05-17T07:01:40;4.13;;;3.80;;
36651;SDS011;53334;51.976;20.144;2023-05-17T07:04:13;4.68;;;3.80;;
36651;SDS011;53334;51.976;20.144;2023-05-17T07:06:48;4.28;;;3.28;;
36651;SDS011;53334;51.976;20.144;2023-05-17T07:09:21;3.60;;;3.30;;
36651;SDS011;53334;51.976;20.144;2023-05-17T07:11:55;5.80;;;3.08;;
36651;SDS011;53334;51.976;20.144;2023-05-17T07:14:28;3.92;;;2.75;;
36651;SDS011;53334;51.976;20.144;2023-05-17T07:17:01;3.75;;;3.00;;
36651;SDS011;53334;51.976;20.144;2023-05-17T07:19:35;5.60;;;3.20;;
36651;SDS011;53334;51.976;20.144;2023-05-17T07:22:10;12.30;;;3.30;;
36651;SDS011;53334;51.976;20.144;2023-05-17T07:24:43;7.40;;;3.65;;
36651;SDS011;53334;51.976;20.144;2023-05-17T07:27:17;4.32;;;3.78;;
36651;SDS011;53334;51.976;20.144;2023-05-17T07:29:50;3.67;;;3.35;;
36651;SDS011;53334;51.976;20.144;2023-05-17T07:32:23;3.97;;;3.10;;
36651;SDS011;53334;51.976;20.144;2023-05-17T07:34:57;7.45;;;3.05;;
36651;SDS011;53334;51.976;20.144;2023-05-17T07:37:31;3.90;;;3.05;;
36651;SDS011;53334;51.976;20.144;2023-05-17T07:40:05;8.93;;;3.17;;
36651;SDS011;53334;51.976;20.144;2023-05-17T07:42:40;4.10;;;3.40;;
36651;SDS011;53334;51.976;20.144;2023-05-17T07:45:13;10.75;;;5.70;;
36651;SDS011;53334;51.976;20.144;2023-05-17T07:47:46;105.57;;;63.38;;
36651;SDS011;53334;51.976;20.144;2023-05-17T07:50:20;227.27;;;138.90;;
36651;SDS011;53334;51.976;20.144;2023-05-17T07:52:55;237.93;;;139.70;;
36651;SDS011;53334;51.976;20.144;2023-05-17T07:55:28;218.88;;;135.32;;
36651;SDS011;53334;51.976;20.144;2023-05-17T07:58:02;208.25;;;126.03;;
36651;SDS011;53334;51.976;20.144;2023-05-17T08:00:35;194.52;;;118.72;;
36651;SDS011;53334;51.976;20.144;2023-05-17T08:03:08;188.30;;;118.20;;
36651;SDS011;53334;51.976;20.144;2023-05-17T08:05:42;189.43;;;114.55;;
36651;SDS011;53334;51.976;20.144;2023-05-17T08:08:17;188.25;;;112.82;;
36651;SDS011;53334;51.976;20.144;2023-05-17T08:10:51;171.55;;;108.18;;
36651;SDS011;53334;51.976;20.144;2023-05-17T08:13:25;166.25;;;101.82;;
36651;SDS011;53334;51.976;20.144;2023-05-17T08:16:01;177.02;;;100.00;;
36651;SDS011;53334;51.976;20.144;2023-05-17T08:18:44;164.75;;;99.22;;
36651;SDS011;53334;51.976;20.144;2023-05-17T08:21:17;163.70;;;95.78;;
36651;SDS011;53334;51.976;20.144;2023-05-17T08:23:52;161.13;;;92.72;;
36651;SDS011;53334;51.976;20.144;2023-05-17T08:26:26;152.43;;;89.78;;
36651;SDS011;53334;51.976;20.144;2023-05-17T08:28:59;158.18;;;88.78;;
36651;SDS011;53334;51.976;20.144;2023-05-17T08:31:33;84.30;;;50.63;;
36651;SDS011;53334;51.976;20.144;2023-05-17T08:34:07;36.45;;;23.23;;
36651;SDS011;53334;51.976;20.144;2023-05-17T08:36:40;20.50;;;13.63;;
36651;SDS011;53334;51.976;20.144;2023-05-17T08:39:16;20.42;;;8.80;;
36651;SDS011;53334;51.976;20.144;2023-05-17T08:41:50;11.85;;;7.47;;
36651;SDS011;53334;51.976;20.144;2023-05-17T08:44:27;12.27;;;6.13;;
36651;SDS011;53334;51.976;20.144;2023-05-17T08:47:00;9.98;;;5.95;;
36651;SDS011;53334;51.976;20.144;2023-05-17T08:49:35;9.52;;;5.90;;
36651;SDS011;53334;51.976;20.144;2023-05-17T08:52:09;8.18;;;5.18;;
36651;SDS011;53334;51.976;20.144;2023-05-17T08:54:45;11.07;;;5.43;;
36651;SDS011;53334;51.976;20.144;2023-05-17T08:57:18;8.93;;;6.03;;
36651;SDS011;53334;51.976;20.144;2023-05-17T08:59:52;11.05;;;5.53;;
36651;SDS011;53334;51.976;20.144;2023-05-17T09:02:27;9.52;;;5.00;;
36651;SDS011;53334;51.976;20.144;2023-05-17T09:05:02;8.80;;;5.00;;
36651;SDS011;53334;51.976;20.144;2023-05-17T09:07:38;11.45;;;5.72;;
36651;SDS011;53334;51.976;20.144;2023-05-17T09:10:14;10.77;;;4.97;;
36651;SDS011;53334;51.976;20.144;2023-05-17T09:12:47;10.00;;;5.88;;
36651;SDS011;53334;51.976;20.144;2023-05-17T09:15:21;29.35;;;15.55;;
36651;SDS011;53334;51.976;20.144;2023-05-17T09:17:57;30.27;;;15.43;;
36651;SDS011;53334;51.976;20.144;2023-05-17T09:20:31;37.65;;;18.50;;
36651;SDS011;53334;51.976;20.144;2023-05-17T09:23:06;30.95;;;16.67;;
36651;SDS011;53334;51.976;20.144;2023-05-17T09:25:46;18.88;;;9.70;;
36651;SDS011;53334;51.976;20.144;2023-05-17T09:28:20;20.52;;;12.85;;
36651;SDS011;53334;51.976;20.144;2023-05-17T09:30:54;27.33;;;15.75;;
36651;SDS011;53334;51.976;20.144;2023-05-17T09:33:27;22.63;;;11.40;;
36651;SDS011;53334;51.976;20.144;2023-05-17T09:36:01;20.70;;;9.30;;
36651;SDS011;53334;51.976;20.144;2023-05-17T09:38:35;23.10;;;12.20;;
36651;SDS011;53334;51.976;20.144;2023-05-17T09:41:09;16.13;;;9.10;;
36651;SDS011;53334;51.976;20.144;2023-05-17T09:43:43;21.00;;;10.93;;
36651;SDS011;53334;51.976;20.144;2023-05-17T09:46:18;25.55;;;11.77;;
36651;SDS011;53334;51.976;20.144;2023-05-17T09:48:52;21.67;;;9.82;;
36651;SDS011;53334;51.976;20.144;2023-05-17T09:51:30;19.85;;;8.82;;
36651;SDS011;53334;51.976;20.144;2023-05-17T09:54:05;16.20;;;9.02;;
36651;SDS011;53334;51.976;20.144;2023-05-17T09:56:40;14.90;;;8.07;;
36651;SDS011;53334;51.976;20.144;2023-05-17T09:59:13;16.88;;;8.68;;
36651;SDS011;53334;51.976;20.144;2023-05-17T10:01:47;17.00;;;8.60;;
36651;SDS011;53334;51.976;20.144;2023-05-17T10:04:22;16.00;;;9.15;;
36651;SDS011;53334;51.976;20.144;2023-05-17T10:07:01;19.48;;;7.95;;
36651;SDS011;53334;51.976;20.144;2023-05-17T10:09:35;13.40;;;7.55;;
36651;SDS011;53334;51.976;20.144;2023-05-17T10:12:10;16.67;;;7.57;;
36651;SDS011;53334;51.976;20.144;2023-05-17T10:14:46;10.73;;;7.05;;
36651;SDS011;53334;51.976;20.144;2023-05-17T10:19:54;12.02;;;7.13;;
36651;SDS011;53334;51.976;20.144;2023-05-17T10:22:28;10.13;;;6.20;;
36651;SDS011;53334;51.976;20.144;2023-05-17T10:25:03;12.63;;;7.07;;
36651;SDS011;53334;51.976;20.144;2023-05-17T10:27:38;13.88;;;6.47;;
36651;SDS011;53334;51.976;20.144;2023-05-17T10:30:12;14.68;;;6.57;;
36651;SDS011;53334;51.976;20.144;2023-05-17T10:32:47;15.88;;;7.57;;
36651;SDS011;53334;51.976;20.144;2023-05-17T10:35:23;11.63;;;5.95;;
36651;SDS011;53334;51.976;20.144;2023-05-17T10:37:58;9.63;;;4.80;;
36651;SDS011;53334;51.976;20.144;2023-05-17T10:40:31;9.43;;;5.47;;
36651;SDS011;53334;51.976;20.144;2023-05-17T10:43:08;10.52;;;6.70;;
36651;SDS011;53334;51.976;20.144;2023-05-17T10:45:43;14.80;;;6.00;;
36651;SDS011;53334;51.976;20.144;2023-05-17T10:48:17;13.57;;;5.70;;
36651;SDS011;53334;51.976;20.144;2023-05-17T10:50:51;12.23;;;6.15;;
36651;SDS011;53334;51.976;20.144;2023-05-17T10:53:31;8.55;;;5.80;;
36651;SDS011;53334;51.976;20.144;2023-05-17T10:56:05;10.57;;;5.20;;
36651;SDS011;53334;51.976;20.144;2023-05-17T10:58:40;9.68;;;4.95;;
36651;SDS011;53334;51.976;20.144;2023-05-17T11:04:23;14.27;;;6.25;;
36651;SDS011;53334;51.976;20.144;2023-05-17T11:10:01;15.23;;;6.50;;
36651;SDS011;53334;51.976;20.144;2023-05-17T11:12:38;12.65;;;6.10;;
36651;SDS011;53334;51.976;20.144;2023-05-17T11:15:15;11.57;;;6.38;;
36651;SDS011;53334;51.976;20.144;2023-05-17T11:17:49;15.20;;;6.10;;
36651;SDS011;53334;51.976;20.144;2023-05-17T11:20:29;7.50;;;5.18;;
36651;SDS011;53334;51.976;20.144;2023-05-17T11:23:06;11.30;;;6.22;;
36651;SDS011;53334;51.976;20.144;2023-05-17T11:25:48;17.92;;;6.47;;
36651;SDS011;53334;51.976;20.144;2023-05-17T11:28:25;12.05;;;4.82;;
36651;SDS011;53334;51.976;20.144;2023-05-17T11:31:00;9.63;;;4.95;;
36651;SDS011;53334;51.976;20.144;2023-05-17T11:33:37;8.20;;;5.43;;
36651;SDS011;53334;51.976;20.144;2023-05-17T11:36:17;7.80;;;4.75;;
36651;SDS011;53334;51.976;20.144;2023-05-17T11:41:46;9.60;;;4.45;;
36651;SDS011;53334;51.976;20.144;2023-05-17T11:44:24;9.65;;;5.00;;
36651;SDS011;53334;51.976;20.144;2023-05-17T11:47:03;10.32;;;4.35;;
36651;SDS011;53334;51.976;20.144;2023-05-17T11:49:38;10.00;;;5.22;;
36651;SDS011;53334;51.976;20.144;2023-05-17T11:52:12;8.13;;;4.53;;
36651;SDS011;53334;51.976;20.144;2023-05-17T11:54:48;10.25;;;4.47;;
36651;SDS011;53334;51.976;20.144;2023-05-17T11:57:27;11.85;;;4.72;;
36651;SDS011;53334;51.976;20.144;2023-05-17T12:00:02;9.05;;;4.57;;
36651;SDS011;53334;51.976;20.144;2023-05-17T12:02:46;10.02;;;4.28;;
36651;SDS011;53334;51.976;20.144;2023-05-17T12:05:20;10.75;;;4.35;;
36651;SDS011;53334;51.976;20.144;2023-05-17T12:07:53;6.78;;;3.83;;
36651;SDS011;53334;51.976;20.144;2023-05-17T12:10:29;10.77;;;4.18;;
36651;SDS011;53334;51.976;20.144;2023-05-17T12:13:05;9.93;;;4.47;;
36651;SDS011;53334;51.976;20.144;2023-05-17T12:15:39;6.10;;;4.35;;
36651;SDS011;53334;51.976;20.144;2023-05-17T12:18:17;6.35;;;3.78;;
36651;SDS011;53334;51.976;20.144;2023-05-17T12:20:52;7.97;;;4.13;;
36651;SDS011;53334;51.976;20.144;2023-05-17T12:23:29;7.80;;;4.05;;
36651;SDS011;53334;51.976;20.144;2023-05-17T12:26:04;9.02;;;3.45;;
36651;SDS011;53334;51.976;20.144;2023-05-17T12:28:39;9.63;;;4.30;;
36651;SDS011;53334;51.976;20.144;2023-05-17T12:31:15;21.10;;;4.47;;
36651;SDS011;53334;51.976;20.144;2023-05-17T12:33:51;17.13;;;4.38;;
36651;SDS011;53334;51.976;20.144;2023-05-17T12:36:25;8.23;;;3.90;;
36651;SDS011;53334;51.976;20.144;2023-05-17T12:39:00;8.30;;;3.42;;
36651;SDS011;53334;51.976;20.144;2023-05-17T12:41:36;13.77;;;3.88;;
36651;SDS011;53334;51.976;20.144;2023-05-17T12:44:10;14.05;;;3.33;;
36651;SDS011;53334;51.976;20.144;2023-05-17T12:46:47;6.60;;;2.90;;
36651;SDS011;53334;51.976;20.144;2023-05-17T12:49:26;5.57;;;2.72;;
36651;SDS011;53334;51.976;20.144;2023-05-17T12:52:01;7.53;;;2.80;;
36651;SDS011;53334;51.976;20.144;2023-05-17T12:54:36;8.50;;;3.03;;
36651;SDS011;53334;51.976;20.144;2023-05-17T12:57:12;6.88;;;3.25;;
36651;SDS011;53334;51.976;20.144;2023-05-17T12:59:47;5.55;;;4.05;;
36651;SDS011;53334;51.976;20.144;2023-05-17T13:02:21;6.97;;;2.60;;
36651;SDS011;53334;51.976;20.144;2023-05-17T13:04:56;10.48;;;3.15;;
36651;SDS011;53334;51.976;20.144;2023-05-17T13:07:29;8.02;;;3.25;;
36651;SDS011;53334;51.976;20.144;2023-05-17T13:10:03;8.80;;;2.97;;
36651;SDS011;53334;51.976;20.144;2023-05-17T13:15:10;16.52;;;3.10;;
36651;SDS011;53334;51.976;20.144;2023-05-17T13:17:46;8.43;;;3.08;;
36651;SDS011;53334;51.976;20.144;2023-05-17T13:20:22;6.05;;;3.40;;
36651;SDS011;53334;51.976;20.144;2023-05-17T13:22:55;8.15;;;3.05;;
36651;SDS011;53334;51.976;20.144;2023-05-17T13:25:29;11.40;;;3.17;;
36651;SDS011;53334;51.976;20.144;2023-05-17T13:28:02;7.93;;;3.60;;
36651;SDS011;53334;51.976;20.144;2023-05-17T13:30:35;5.20;;;3.22;;
36651;SDS011;53334;51.976;20.144;2023-05-17T13:33:10;8.45;;;3.03;;
36651;SDS011;53334;51.976;20.144;2023-05-17T13:35:45;9.60;;;3.05;;
36651;SDS011;53334;51.976;20.144;2023-05-17T13:38:18;6.80;;;3.08;;
36651;SDS011;53334;51.976;20.144;2023-05-17T13:40:52;11.80;;;4.60;;
36651;SDS011;53334;51.976;20.144;2023-05-17T13:43:25;28.35;;;11.73;;
36651;SDS011;53334;51.976;20.144;2023-05-17T13:45:59;16.25;;;8.80;;
36651;SDS011;53334;51.976;20.144;2023-05-17T13:48:32;25.48;;;15.02;;
36651;SDS011;53334;51.976;20.144;2023-05-17T13:51:07;22.00;;;14.30;;
36651;SDS011;53334;51.976;20.144;2023-05-17T13:53:40;18.45;;;13.85;;
36651;SDS011;53334;51.976;20.144;2023-05-17T13:56:14;28.70;;;17.88;;
36651;SDS011;53334;51.976;20.144;2023-05-17T13:58:47;48.15;;;34.42;;
36651;SDS011;53334;51.976;20.144;2023-05-17T14:01:21;41.85;;;28.25;;
36651;SDS011;53334;51.976;20.144;2023-05-17T14:03:54;34.97;;;21.60;;
36651;SDS011;53334;51.976;20.144;2023-05-17T14:06:29;56.78;;;21.10;;
36651;SDS011;53334;51.976;20.144;2023-05-17T14:09:03;44.22;;;21.35;;
36651;SDS011;53334;51.976;20.144;2023-05-17T14:11:41;27.48;;;18.27;;
36651;SDS011;53334;51.976;20.144;2023-05-17T14:14:14;30.88;;;18.75;;
36651;SDS011;53334;51.976;20.144;2023-05-17T14:16:47;23.73;;;16.17;;
36651;SDS011;53334;51.976;20.144;2023-05-17T14:19:20;24.65;;;16.13;;
36651;SDS011;53334;51.976;20.144;2023-05-17T14:21:55;18.42;;;14.13;;
36651;SDS011;53334;51.976;20.144;2023-05-17T14:24:29;18.48;;;12.40;;
36651;SDS011;53334;51.976;20.144;2023-05-17T14:27:04;23.38;;;12.65;;
36651;SDS011;53334;51.976;20.144;2023-05-17T14:29:37;13.55;;;9.25;;
36651;SDS011;53334;51.976;20.144;2023-05-17T14:32:11;18.65;;;12.15;;
36651;SDS011;53334;51.976;20.144;2023-05-17T14:34:44;9.70;;;8.63;;
36651;SDS011;53334;51.976;20.144;2023-05-17T14:37:19;14.50;;;10.02;;
36651;SDS011;53334;51.976;20.144;2023-05-17T14:39:53;14.77;;;8.35;;
36651;SDS011;53334;51.976;20.144;2023-05-17T14:45:10;17.80;;;8.63;;
36651;SDS011;53334;51.976;20.144;2023-05-17T14:50:17;12.32;;;8.32;;
36651;SDS011;53334;51.976;20.144;2023-05-17T14:52:52;13.30;;;8.38;;
36651;SDS011;53334;51.976;20.144;2023-05-17T14:55:25;12.80;;;8.73;;
36651;SDS011;53334;51.976;20.144;2023-05-17T15:00:33;11.47;;;8.57;;
36651;SDS011;53334;51.976;20.144;2023-05-17T15:03:06;12.52;;;7.80;;
36651;SDS011;53334;51.976;20.144;2023-05-17T15:08:14;16.58;;;7.78;;
36651;SDS011;53334;51.976;20.144;2023-05-17T15:10:48;13.38;;;8.20;;
36651;SDS011;53334;51.976;20.144;2023-05-17T15:13:21;10.95;;;8.05;;
36651;SDS011;53334;51.976;20.144;2023-05-17T15:15:55;15.02;;;9.02;;
36651;SDS011;53334;51.976;20.144;2023-05-17T15:18:28;11.25;;;7.55;;
36651;SDS011;53334;51.976;20.144;2023-05-17T15:21:01;11.38;;;8.82;;
36651;SDS011;53334;51.976;20.144;2023-05-17T15:23:36;12.70;;;8.07;;
36651;SDS011;53334;51.976;20.144;2023-05-17T15:26:10;11.73;;;7.88;;
36651;SDS011;53334;51.976;20.144;2023-05-17T15:28:43;11.10;;;7.53;;
36651;SDS011;53334;51.976;20.144;2023-05-17T15:31:17;11.10;;;8.23;;
36651;SDS011;53334;51.976;20.144;2023-05-17T15:33:51;8.77;;;7.20;;
36651;SDS011;53334;51.976;20.144;2023-05-17T15:36:24;8.80;;;7.18;;
36651;SDS011;53334;51.976;20.144;2023-05-17T15:38:58;12.63;;;8.02;;
36651;SDS011;53334;51.976;20.144;2023-05-17T15:41:32;12.43;;;8.32;;
36651;SDS011;53334;51.976;20.144;2023-05-17T15:44:05;11.48;;;7.90;;
36651;SDS011;53334;51.976;20.144;2023-05-17T15:49:12;16.30;;;7.55;;
36651;SDS011;53334;51.976;20.144;2023-05-17T15:51:46;12.77;;;7.65;;
36651;SDS011;53334;51.976;20.144;2023-05-17T15:54:20;10.63;;;7.13;;
36651;SDS011;53334;51.976;20.144;2023-05-17T15:56:53;13.05;;;6.85;;
36651;SDS011;53334;51.976;20.144;2023-05-17T15:59:27;13.40;;;7.93;;